Time;durP1;ratioP1;P1;durP2;ratioP2;P2;SDS_P1;SDS_P2;PMS_P1;PMS_P2;Temp;Humidity;BMP_temperature;BMP_pressure;BME280_temperature;BME280_humidity;BME280_pressure;Samples;Min_cycle;Max_cycle;Signal;HPM_P1;HPM_P2
2023/05/25 00:00:52;;;;;;;;;;;;;;;;;;5052361;28;19916;-60
2023/05/25 00:03:19;;;;;;;;;;;;;;;;;;5051833;28;19916;-60
2023/05/25 00:05:47;;;;;;;;;;;;;;;;;;5034545;28;19923;-60
2023/05/25 00:08:12;;;;;;;;;;;;;;;;;;5051925;28;19920;-60
2023/05/25 00:10:38;;;;;;;;;;;;;;;;;;5050446;28;19947;-60
2023/05/25 00:13:03;;;;;;;;;;;;;;;;;;5069662;28;19912;-60
2023/05/25 00:15:29;;;;;;;;;;;;;;;;;;5030477;28;21393;-59
2023/05/25 00:17:54;;;;;;;;;;;;;;;;;;5067649;28;20413;-61
2023/05/25 00:20:20;;;;;;;;;;;;;;;;;;5043600;28;20259;-59
2023/05/25 00:22:48;;;;;;;;;;;;;;;;;;5058730;28;20007;-60
2023/05/25 00:25:15;;;;;;;;;;;;;;;;;;5039433;28;19920;-60
2023/05/25 00:27:43;;;;;;;;;;;;;;;;;;5056626;28;20681;-60
2023/05/25 00:30:11;;;;;;;;;;;;;;;;;;5073421;28;20394;-60
2023/05/25 00:32:41;;;;;;;;;;;;;;;;;;5073887;28;20382;-59
2023/05/25 00:35:06;;;;;;;;;;;;;;;;;;5058493;28;19951;-59
2023/05/25 00:37:32;;;;;;;;;;;;;;;;;;5053094;28;20290;-60
2023/05/25 00:39:59;;;;;;;;;;;;;;;;;;5073533;28;21608;-59
2023/05/25 00:42:26;;;;;;;;;;;;;;;;;;5071050;28;19943;-60
2023/05/25 00:44:56;;;;;;;;;;;;;;;;;;5057664;28;19920;-59
2023/05/25 00:47:24;;;;;;;;;;;;;;;;;;5056384;28;19927;-59
2023/05/25 00:49:52;;;;;;;;;;;;;;;;;;5037022;28;20299;-59
2023/05/25 00:52:22;;;;;;;;;;;;;;;;;;5051983;28;19969;-60
2023/05/25 00:54:51;;;;;;;;;;;;;;;;;;5072419;28;20423;-59
2023/05/25 00:57:21;;;;;;;;;;;;;;;;;;5072345;28;20350;-59
2023/05/25 00:59:48;;;;;;;;;;;;;;;;;;5076521;28;19916;-59
2023/05/25 01:02:16;;;;;;;;;;;;;;;;;;5056508;28;19927;-59
2023/05/25 01:04:43;;;;;;;;;;;;;;;;;;5074216;28;19924;-59
2023/05/25 01:07:12;;;;;;;;;;;;;;;;;;5050189;28;19943;-59
2023/05/25 01:09:40;;;;;;;;;;;;;;;;;;5041017;28;19916;-59
2023/05/25 01:12:11;;;;;;;;;;;;;;;;;;5055129;28;19927;-59
2023/05/25 01:14:39;;;;;;;;;;;;;;;;;;5055686;28;20240;-59
2023/05/25 01:17:06;;;;;;;;;;;;;;;;;;5069454;28;19920;-59
2023/05/25 01:19:32;;;;;;;;;;;;;;;;;;5055922;28;19916;-59
2023/05/25 01:22:02;;;;;;;;;;;;;;;;;;5053869;28;21015;-59
2023/05/25 01:24:29;;;;;;;;;;;;;;;;;;5056686;28;19919;-60
2023/05/25 01:26:55;;;;;;;;;;;;;;;;;;5035929;28;20015;-59
2023/05/25 01:29:23;;;;;;;;;;;;;;;;;;5053401;28;20012;-59
2023/05/25 01:31:49;;;;;;;;;;;;;;;;;;5036061;28;20662;-59
2023/05/25 01:34:20;;;;;;;;;;;;;;;;;;5034558;28;19922;-59
2023/05/25 01:36:50;;;;;;;;;;;;;;;;;;5037350;28;19920;-59
2023/05/25 01:39:18;;;;;;;;;;;;;;;;;;5034302;28;20521;-59
2023/05/25 01:41:46;;;;;;;;;;;;;;;;;;5041577;28;19926;-59
2023/05/25 01:44:11;;;;;;;;;;;;;;;;;;5055971;28;19920;-59
2023/05/25 01:46:37;;;;;;;;;;;;;;;;;;5035761;28;19922;-59
2023/05/25 01:49:02;;;;;;;;;;;;;;;;;;5049801;28;19920;-59
2023/05/25 01:51:31;;;;;;;;;;;;;;;;;;5036906;28;19985;-59
2023/05/25 01:54:00;;;;;;;;;;;;;;;;;;5073108;28;20516;-59
2023/05/25 01:56:26;;;;;;;;;;;;;;;;;;5035075;28;19920;-59
2023/05/25 01:58:51;;;;;;;;;;;;;;;;;;5033873;28;19935;-59
2023/05/25 02:01:19;;;;;;;;;;;;;;;;;;5053413;28;19973;-59
2023/05/25 02:03:50;;;;;;;;;;;;;;;;;;5048562;28;19916;-60
2023/05/25 02:06:18;;;;;;;;;;;;;;;;;;5054777;28;19916;-60
2023/05/25 02:08:44;;;;;;;;;;;;;;;;;;5050569;28;19920;-60
2023/05/25 02:11:10;;;;;;;;;;;;;;;;;;5054400;28;20840;-60
2023/05/25 02:13:35;;;;;;;;;;;;;;;;;;5056181;28;19975;-60
2023/05/25 02:16:02;;;;;;;;;;;;;;;;;;5035386;28;20014;-60
2023/05/25 02:18:31;;;;;;;;;;;;;;;;;;5055320;28;19977;-60
2023/05/25 02:21:02;;;;;;;;;;;;;;;;;;5053172;28;19927;-60
2023/05/25 02:23:27;;;;;;;;;;;;;;;;;;5048685;28;20460;-60
2023/05/25 02:25:52;;;;;;;;;;;;;;;;;;5052468;28;19919;-60
2023/05/25 02:28:18;;;;;;;;;;;;;;;;;;5032783;28;19923;-60
2023/05/25 02:30:43;;;;;;;;;;;;;;;;;;5053648;28;22065;-60
2023/05/25 02:33:09;;;;;;;;;;;;;;;;;;5049358;28;20440;-60
2023/05/25 02:35:34;;;;;;;;;;;;;;;;;;5053223;28;20116;-60
2023/05/25 02:37:59;;;;;;;;;;;;;;;;;;5035617;28;20897;-60
2023/05/25 02:40:27;;;;;;;;;;;;;;;;;;5053802;28;19920;-59
2023/05/25 02:42:58;;;;;;;;;;;;;;;;;;5047990;28;19950;-60
2023/05/25 02:45:24;;;;;;;;;;;;;;;;;;5052250;28;22023;-60
2023/05/25 02:47:49;;;;;;;;;;;;;;;;;;5033001;28;19962;-59
2023/05/25 02:50:14;;;;;;;;;;;;;;;;;;5053786;28;21545;-60
2023/05/25 02:52:42;;;;;;;;;;;;;;;;;;5033004;28;20000;-60
2023/05/25 02:55:12;;;;;;;;;;;;;;;;;;5035251;28;20007;-60
2023/05/25 02:57:40;;;;;;;;;;;;;;;;;;5053337;28;20043;-60
2023/05/25 03:00:10;;;;;;;;;;;;;;;;;;5051687;28;19938;-60
2023/05/25 03:02:36;;;;;;;;;;;;;;;;;;5050952;28;19923;-60
2023/05/25 03:05:05;;;;;;;;;;;;;;;;;;5033449;28;19926;-60
2023/05/25 03:07:30;;;;;;;;;;;;;;;;;;5033015;28;20013;-60
2023/05/25 03:09:58;;;;;;;;;;;;;;;;;;5055013;28;19955;-60
2023/05/25 03:12:23;;;;;;;;;;;;;;;;;;5053463;28;20201;-60
2023/05/25 03:14:49;;;;;;;;;;;;;;;;;;5051936;28;20038;-60
2023/05/25 03:17:17;;;;;;;;;;;;;;;;;;5051927;28;20299;-60
2023/05/25 03:19:47;;;;;;;;;;;;;;;;;;5052782;28;19920;-60
2023/05/25 03:22:12;;;;;;;;;;;;;;;;;;5051235;28;19920;-60
2023/05/25 03:24:40;;;;;;;;;;;;;;;;;;5053476;28;20002;-60
2023/05/25 03:27:08;;;;;;;;;;;;;;;;;;5031834;28;19920;-60
2023/05/25 03:29:33;;;;;;;;;;;;;;;;;;5052352;28;19924;-60
2023/05/25 03:32:01;;;;;;;;;;;;;;;;;;5067626;28;20386;-60
2023/05/25 03:34:26;;;;;;;;;;;;;;;;;;5039527;28;20000;-60
2023/05/25 03:36:53;;;;;;;;;;;;;;;;;;5048484;28;20542;-60
2023/05/25 03:39:21;;;;;;;;;;;;;;;;;;5064471;28;20053;-60
2023/05/25 03:41:47;;;;;;;;;;;;;;;;;;5036365;28;19923;-60
2023/05/25 03:44:12;;;;;;;;;;;;;;;;;;5054086;28;20006;-60
2023/05/25 03:46:40;;;;;;;;;;;;;;;;;;5051765;28;19972;-60
2023/05/25 03:49:12;;;;;;;;;;;;;;;;;;5049891;28;20321;-60
2023/05/25 03:51:40;;;;;;;;;;;;;;;;;;5050902;28;19916;-60
2023/05/25 03:54:07;;;;;;;;;;;;;;;;;;5066432;28;20018;-60
2023/05/25 03:56:33;;;;;;;;;;;;;;;;;;5034943;28;21950;-61
2023/05/25 03:59:00;;;;;;;;;;;;;;;;;;5069162;28;20017;-60
2023/05/25 04:01:28;;;;;;;;;;;;;;;;;;5046422;28;19923;-61
2023/05/25 04:03:57;;;;;;;;;;;;;;;;;;5035867;28;19927;-61
2023/05/25 04:06:24;;;;;;;;;;;;;;;;;;5050478;28;19916;-60
2023/05/25 04:08:56;;;;;;;;;;;;;;;;;;5032777;28;19927;-59
2023/05/25 04:11:23;;;;;;;;;;;;;;;;;;5050789;28;19958;-59
2023/05/25 04:13:51;;;;;;;;;;;;;;;;;;5035248;28;19920;-59
2023/05/25 04:16:17;;;;;;;;;;;;;;;;;;5067880;28;19923;-60
2023/05/25 04:18:45;;;;;;;;;;;;;;;;;;5067878;28;20054;-59
2023/05/25 04:21:13;;;;;;;;;;;;;;;;;;5033553;28;20029;-60
2023/05/25 04:23:41;;;;;;;;;;;;;;;;;;5033732;28;19928;-60
2023/05/25 04:26:14;;;;;;;;;;;;;;;;;;5071759;28;20269;-60
2023/05/25 04:28:42;;;;;;;;;;;;;;;;;;5048273;28;19916;-60
2023/05/25 04:31:07;;;;;;;;;;;;;;;;;;5053512;28;19920;-60
2023/05/25 04:33:37;;;;;;;;;;;;;;;;;;5033978;28;19923;-60
2023/05/25 04:36:02;;;;;;;;;;;;;;;;;;5049259;28;19915;-60
2023/05/25 04:38:29;;;;;;;;;;;;;;;;;;5030957;28;20054;-60
2023/05/25 04:40:57;;;;;;;;;;;;;;;;;;5053740;28;19927;-60
2023/05/25 04:43:24;;;;;;;;;;;;;;;;;;5068947;28;19950;-60
2023/05/25 04:45:53;;;;;;;;;;;;;;;;;;5050238;28;19927;-60
2023/05/25 04:48:23;;;;;;;;;;;;;;;;;;5049059;28;19927;-60
2023/05/25 04:50:49;;;;;;;;;;;;;;;;;;5054038;28;19916;-61
2023/05/25 04:53:14;;;;;;;;;;;;;;;;;;5050761;28;19916;-60
2023/05/25 04:55:39;;;;;;;;;;;;;;;;;;5052497;28;19926;-60
2023/05/25 04:58:07;;;;;;;;;;;;;;;;;;5071496;28;19967;-61
2023/05/25 05:00:33;;;;;;;;;;;;;;;;;;5037180;28;19959;-61
2023/05/25 05:03:01;;;;;;;;;;;;;;;;;;5066565;28;20442;-61
2023/05/25 05:05:27;;;;;;;;;;;;;;;;;;5068702;28;19927;-61
2023/05/25 05:07:52;;;;;;;;;;;;;;;;;;5049491;28;19927;-61
2023/05/25 05:10:18;;;;;;;;;;;;;;;;;;5037830;28;19920;-61
2023/05/25 05:12:43;;;;;;;;;;;;;;;;;;5051432;28;19920;-61
2023/05/25 05:15:08;;;;;;;;;;;;;;;;;;5053688;28;19920;-61
2023/05/25 05:17:35;;;;;;;;;;;;;;;;;;5036967;28;19935;-62
2023/05/25 05:20:00;;;;;;;;;;;;;;;;;;5072878;28;19920;-61
2023/05/25 05:22:26;;;;;;;;;;;;;;;;;;5046906;28;20252;-61
2023/05/25 05:24:55;;;;;;;;;;;;;;;;;;5072269;28;19920;-61
2023/05/25 05:27:20;;;;;;;;;;;;;;;;;;5048507;28;19923;-61
2023/05/25 05:29:45;;;;;;;;;;;;;;;;;;5053429;28;20389;-61
2023/05/25 05:32:13;;;;;;;;;;;;;;;;;;5054236;28;19919;-61
2023/05/25 05:34:41;;;;;;;;;;;;;;;;;;5037570;28;19969;-61
2023/05/25 05:37:07;;;;;;;;;;;;;;;;;;5051166;28;20528;-60
2023/05/25 05:39:32;;;;;;;;;;;;;;;;;;5054581;28;19923;-61
2023/05/25 05:41:58;;;;;;;;;;;;;;;;;;5053054;28;19927;-61
2023/05/25 05:44:23;;;;;;;;;;;;;;;;;;5043560;28;19997;-60
2023/05/25 05:46:48;;;;;;;;;;;;;;;;;;5035094;28;19920;-61
2023/05/25 05:49:14;;;;;;;;;;;;;;;;;;5072268;28;19927;-61
2023/05/25 05:51:40;;;;;;;;;;;;;;;;;;5038719;28;19920;-61
2023/05/25 05:54:05;;;;;;;;;;;;;;;;;;5031600;28;19916;-61
2023/05/25 05:56:33;;;;;;;;;;;;;;;;;;5035225;28;19938;-60
2023/05/25 05:58:58;;;;;;;;;;;;;;;;;;5068848;28;19928;-62
2023/05/25 06:01:26;;;;;;;;;;;;;;;;;;5051283;28;19973;-62
2023/05/25 06:03:53;;;;;;;;;;;;;;;;;;5072339;28;20759;-62
2023/05/25 06:06:21;;;;;;;;;;;;;;;;;;5028442;28;20501;-61
2023/05/25 06:08:48;;;;;;;;;;;;;;;;;;5052950;28;19920;-61
2023/05/25 06:11:16;;;;;;;;;;;;;;;;;;5070225;28;22062;-62
2023/05/25 06:13:44;;;;;;;;;;;;;;;;;;5049393;28;19916;-62
2023/05/25 06:16:13;;;;;;;;;;;;;;;;;;5049088;28;20291;-61
2023/05/25 06:18:41;;;;;;;;;;;;;;;;;;5052776;28;19935;-62
2023/05/25 06:21:06;;;;;;;;;;;;;;;;;;5032116;28;19916;-61
2023/05/25 06:23:32;;;;;;;;;;;;;;;;;;5034183;28;19956;-61
2023/05/25 06:25:57;;;;;;;;;;;;;;;;;;5051980;28;19923;-61
2023/05/25 06:28:25;;;;;;;;;;;;;;;;;;5049144;28;21057;-60
2023/05/25 06:30:54;;;;;;;;;;;;;;;;;;5070006;28;20469;-61
2023/05/25 06:33:22;;;;;;;;;;;;;;;;;;5043603;28;19916;-61
2023/05/25 06:35:59;;;;;;;;;;;;;;;;;;5053843;28;19968;-60
2023/05/25 06:38:24;;;;;;;;;;;;;;;;;;5070782;28;20026;-61
2023/05/25 06:40:52;;;;;;;;;;;;;;;;;;5051739;28;20048;-62
2023/05/25 06:43:18;;;;;;;;;;;;;;;;;;5071568;28;20002;-61
2023/05/25 06:45:44;;;;;;;;;;;;;;;;;;5051553;28;19966;-61
2023/05/25 06:48:10;;;;;;;;;;;;;;;;;;5052368;28;20397;-61
2023/05/25 06:53:30;;;;;;;;;;;;;;;;;;5063438;28;19916;-61
2023/05/25 06:55:58;;;;;;;;;;;;;;;;;;5047960;28;19923;-61
2023/05/25 06:58:23;;;;;;;;;;;;;;;;;;5053887;28;19967;-61
2023/05/25 07:00:53;;;;;;;;;;;;;;;;;;5071771;28;19916;-61
2023/05/25 07:03:21;;;;;;;;;;;;;;;;;;5054987;28;20323;-61
2023/05/25 07:05:47;;;;;;;;;;;;;;;;;;5049170;28;19916;-61
2023/05/25 07:08:15;;;;;;;;;;;;;;;;;;5052498;28;20363;-62
2023/05/25 07:10:40;;;;;;;;;;;;;;;;;;5055194;28;19920;-62
2023/05/25 07:13:08;;;;;;;;;;;;;;;;;;5069616;28;20027;-61
2023/05/25 07:15:33;;;;;;;;;;;;;;;;;;5037739;28;19920;-61
2023/05/25 07:18:02;;;;;;;;;;;;;;;;;;5030697;28;19970;-61
2023/05/25 07:23:46;;;;;;;;;;;;;;;;;;5063989;28;20021;-60
2023/05/25 07:26:15;;;;;;;;;;;;;;;;;;5054199;28;19942;-61
2023/05/25 07:28:43;;;;;;;;;;;;;;;;;;5071119;28;19916;-62
2023/05/25 07:31:10;;;;;;;;;;;;;;;;;;5054181;28;21328;-62
2023/05/25 07:33:38;;;;;;;;;;;;;;;;;;5047798;28;19930;-61
2023/05/25 07:36:06;;;;;;;;;;;;;;;;;;5037180;28;19924;-60
2023/05/25 07:38:34;;;;;;;;;;;;;;;;;;5051123;28;19924;-60
2023/05/25 07:41:02;;;;;;;;;;;;;;;;;;5065328;28;19919;-60
2023/05/25 07:43:27;;;;;;;;;;;;;;;;;;5046873;28;19927;-62
2023/05/25 07:45:52;;;;;;;;;;;;;;;;;;5067995;28;19920;-60
2023/05/25 07:48:17;;;;;;;;;;;;;;;;;;5053959;28;19977;-61
2023/05/25 07:50:45;;;;;;;;;;;;;;;;;;5045071;28;19962;-61
2023/05/25 07:53:10;;;;;;;;;;;;;;;;;;5067826;28;19916;-61
2023/05/25 07:55:36;;;;;;;;;;;;;;;;;;5034937;28;19924;-61
2023/05/25 07:58:06;;;;;;;;;;;;;;;;;;5035398;28;19946;-61
2023/05/25 08:00:31;;;;;;;;;;;;;;;;;;5052558;28;20113;-61
2023/05/25 08:03:01;;;;;;;;;;;;;;;;;;5052421;28;19999;-61
2023/05/25 08:05:26;;;;;;;;;;;;;;;;;;5036579;28;19916;-61
2023/05/25 08:07:51;;;;;;;;;;;;;;;;;;5066238;28;20319;-62
2023/05/25 08:10:16;;;;;;;;;;;;;;;;;;5050796;28;19999;-61
2023/05/25 08:12:44;;;;;;;;;;;;;;;;;;5050787;28;20034;-62
2023/05/25 08:15:10;;;;;;;;;;;;;;;;;;5054705;28;19916;-61
2023/05/25 08:17:40;;;;;;;;;;;;;;;;;;5049343;28;20133;-62
2023/05/25 08:20:07;;;;;;;;;;;;;;;;;;5038772;28;19924;-61
2023/05/25 08:22:32;;;;;;;;;;;;;;;;;;5068010;28;19998;-61
2023/05/25 08:25:00;;;;;;;;;;;;;;;;;;5035357;28;19955;-62
2023/05/25 08:27:28;;;;;;;;;;;;;;;;;;5048737;28;20866;-61
2023/05/25 08:29:55;;;;;;;;;;;;;;;;;;5071080;28;19920;-61
2023/05/25 08:32:21;;;;;;;;;;;;;;;;;;5048861;28;19950;-61
2023/05/25 08:34:46;;;;;;;;;;;;;;;;;;5068296;28;19920;-62
2023/05/25 08:37:14;;;;;;;;;;;;;;;;;;5051743;28;19927;-61
2023/05/25 08:39:39;;;;;;;;;;;;;;;;;;5031146;28;19924;-61
2023/05/25 08:42:05;;;;;;;;;;;;;;;;;;5051896;28;19920;-61
2023/05/25 08:44:31;;;;;;;;;;;;;;;;;;5036533;28;20299;-61
2023/05/25 08:47:01;;;;;;;;;;;;;;;;;;5057714;28;19921;-61
2023/05/25 08:49:27;;;;;;;;;;;;;;;;;;5057265;28;19927;-61
2023/05/25 08:51:52;;;;;;;;;;;;;;;;;;5073583;28;19920;-61
2023/05/25 08:54:20;;;;;;;;;;;;;;;;;;5038466;28;20035;-61
2023/05/25 08:56:45;;;;;;;;;;;;;;;;;;5074399;28;19922;-62
2023/05/25 08:59:11;;;;;;;;;;;;;;;;;;5057611;28;19926;-61
2023/05/25 09:01:37;;;;;;;;;;;;;;;;;;5068042;28;19916;-62
2023/05/25 09:04:02;;;;;;;;;;;;;;;;;;5055040;28;19935;-62
2023/05/25 09:06:27;;;;;;;;;;;;;;;;;;5054478;28;19920;-62
2023/05/25 09:08:53;;;;;;;;;;;;;;;;;;5055634;28;19932;-62
2023/05/25 09:11:18;;;;;;;;;;;;;;;;;;5071857;28;20307;-62
2023/05/25 09:13:43;;;;;;;;;;;;;;;;;;5056270;28;19916;-63
2023/05/25 09:16:11;;;;;;;;;;;;;;;;;;5074493;28;19982;-63
2023/05/25 09:18:37;;;;;;;;;;;;;;;;;;5051240;28;20368;-62
2023/05/25 09:21:04;;;;;;;;;;;;;;;;;;5074890;28;19920;-62
2023/05/25 09:23:32;;;;;;;;;;;;;;;;;;5054290;28;19920;-62
2023/05/25 09:26:01;;;;;;;;;;;;;;;;;;5056196;28;20111;-63
2023/05/25 09:28:26;;;;;;;;;;;;;;;;;;5052619;28;20475;-62
2023/05/25 09:30:51;;;;;;;;;;;;;;;;;;5033069;28;19924;-62
2023/05/25 09:33:19;;;;;;;;;;;;;;;;;;5054764;28;19973;-60
2023/05/25 09:35:45;;;;;;;;;;;;;;;;;;5053798;28;20282;-61
2023/05/25 09:38:12;;;;;;;;;;;;;;;;;;5052985;28;19959;-62
2023/05/25 09:40:38;;;;;;;;;;;;;;;;;;5033080;28;20411;-61
2023/05/25 09:43:03;;;;;;;;;;;;;;;;;;5055024;28;19931;-63
2023/05/25 09:45:30;;;;;;;;;;;;;;;;;;5074514;28;19998;-62
2023/05/25 09:47:56;;;;;;;;;;;;;;;;;;5034728;28;19930;-62
2023/05/25 09:50:24;;;;;;;;;;;;;;;;;;5053748;28;20644;-62
2023/05/25 09:52:49;;;;;;;;;;;;;;;;;;5053932;28;20622;-59
2023/05/25 09:55:17;;;;;;;;;;;;;;;;;;5049168;28;19943;-62
2023/05/25 09:57:43;;;;;;;;;;;;;;;;;;5051087;28;20387;-64
2023/05/25 10:00:10;;;;;;;;;;;;;;;;;;5071614;28;19929;-62
2023/05/25 10:02:35;;;;;;;;;;;;;;;;;;5052620;28;19924;-61
2023/05/25 10:05:03;;;;;;;;;;;;;;;;;;5056068;28;19921;-60
2023/05/25 10:07:28;;;;;;;;;;;;;;;;;;5035311;28;20348;-62
2023/05/25 10:09:53;;;;;;;;;;;;;;;;;;5038239;28;19926;-61
2023/05/25 10:12:19;;;;;;;;;;;;;;;;;;5055364;28;19916;-61
2023/05/25 10:14:45;;;;;;;;;;;;;;;;;;5051706;28;20034;-62
2023/05/25 10:17:10;;;;;;;;;;;;;;;;;;5035168;28;19936;-63
2023/05/25 10:19:36;;;;;;;;;;;;;;;;;;5071976;28;20057;-62
2023/05/25 10:22:04;;;;;;;;;;;;;;;;;;5047606;28;19916;-64
2023/05/25 10:24:31;;;;;;;;;;;;;;;;;;5071465;28;20011;-62
2023/05/25 10:26:57;;;;;;;;;;;;;;;;;;5033899;28;19965;-62
2023/05/25 10:29:23;;;;;;;;;;;;;;;;;;5070948;28;19928;-61
2023/05/25 10:31:49;;;;;;;;;;;;;;;;;;5053723;28;20006;-65
2023/05/25 10:34:17;;;;;;;;;;;;;;;;;;5055473;28;19923;-62
2023/05/25 10:36:42;;;;;;;;;;;;;;;;;;5071461;28;19919;-63
2023/05/25 10:39:10;;;;;;;;;;;;;;;;;;5072871;28;19920;-62
2023/05/25 10:41:35;;;;;;;;;;;;;;;;;;5053487;28;19931;-61
2023/05/25 10:44:06;;;;;;;;;;;;;;;;;;5034652;28;19964;-61
2023/05/25 10:46:31;;;;;;;;;;;;;;;;;;5070093;28;19989;-60
2023/05/25 10:49:01;;;;;;;;;;;;;;;;;;5034387;28;20630;-62
2023/05/25 10:51:26;;;;;;;;;;;;;;;;;;5052669;28;19941;-62
2023/05/25 10:53:54;;;;;;;;;;;;;;;;;;5041491;28;19916;-63
2023/05/25 10:56:20;;;;;;;;;;;;;;;;;;5052369;28;19916;-60
2023/05/25 10:58:45;;;;;;;;;;;;;;;;;;5034859;28;19920;-61
2023/05/25 11:01:10;;;;;;;;;;;;;;;;;;5052428;28;19927;-61
2023/05/25 11:03:36;;;;;;;;;;;;;;;;;;5051187;28;19916;-61
2023/05/25 11:06:01;;;;;;;;;;;;;;;;;;5053999;28;19920;-60
2023/05/25 11:08:26;;;;;;;;;;;;;;;;;;5072496;28;19943;-61
2023/05/25 11:10:52;;;;;;;;;;;;;;;;;;5052228;28;20006;-62
2023/05/25 11:13:22;;;;;;;;;;;;;;;;;;5069026;28;19988;-62
2023/05/25 11:15:47;;;;;;;;;;;;;;;;;;5051723;28;19927;-62
2023/05/25 11:18:13;;;;;;;;;;;;;;;;;;5050525;28;20307;-62
2023/05/25 11:20:38;;;;;;;;;;;;;;;;;;5052825;28;20406;-62
2023/05/25 11:23:03;;;;;;;;;;;;;;;;;;5070426;28;20294;-61
2023/05/25 11:25:31;;;;;;;;;;;;;;;;;;5072086;28;20551;-61
2023/05/25 11:27:56;;;;;;;;;;;;;;;;;;5049379;28;19927;-63
2023/05/25 11:30:24;;;;;;;;;;;;;;;;;;5073879;28;19962;-60
2023/05/25 11:32:53;;;;;;;;;;;;;;;;;;5034171;28;20010;-62
2023/05/25 11:35:21;;;;;;;;;;;;;;;;;;5035724;28;20014;-61
2023/05/25 11:37:46;;;;;;;;;;;;;;;;;;5049853;28;20298;-61
2023/05/25 11:40:12;;;;;;;;;;;;;;;;;;5068987;28;19924;-62
2023/05/25 11:42:37;;;;;;;;;;;;;;;;;;5069510;28;20062;-61
2023/05/25 11:45:04;;;;;;;;;;;;;;;;;;5069776;28;19939;-62
2023/05/25 11:47:32;;;;;;;;;;;;;;;;;;5050613;28;19920;-62
2023/05/25 11:49:57;;;;;;;;;;;;;;;;;;5066878;28;19962;-62
2023/05/25 11:52:22;;;;;;;;;;;;;;;;;;5070420;28;20007;-62
2023/05/25 11:54:51;;;;;;;;;;;;;;;;;;5070543;28;19920;-61
2023/05/25 11:57:17;;;;;;;;;;;;;;;;;;5047591;28;19922;-62
2023/05/25 11:59:47;;;;;;;;;;;;;;;;;;5051900;28;20406;-61
2023/05/25 12:02:13;;;;;;;;;;;;;;;;;;5070742;28;19920;-62
2023/05/25 12:04:41;;;;;;;;;;;;;;;;;;5033210;28;20026;-63
2023/05/25 12:07:07;;;;;;;;;;;;;;;;;;5051011;28;19920;-61
2023/05/25 12:09:35;;;;;;;;;;;;;;;;;;5045776;28;19983;-62
2023/05/25 12:12:03;;;;;;;;;;;;;;;;;;5053454;28;19923;-61
2023/05/25 12:14:33;;;;;;;;;;;;;;;;;;5045884;28;20408;-61
2023/05/25 12:20:15;;;;;;;;;;;;;;;;;;5072311;28;19934;-62
2023/05/25 12:22:43;;;;;;;;;;;;;;;;;;5036504;28;19924;-62
2023/05/25 12:25:11;;;;;;;;;;;;;;;;;;5038909;28;19939;-62
2023/05/25 12:27:36;;;;;;;;;;;;;;;;;;5075295;28;19938;-61
2023/05/25 12:30:04;;;;;;;;;;;;;;;;;;5067471;28;19927;-61
2023/05/25 12:32:32;;;;;;;;;;;;;;;;;;5033272;28;19916;-61
2023/05/25 12:34:57;;;;;;;;;;;;;;;;;;5333369;22;20356;-61
2023/05/25 12:37:23;;;;;;;;;;;;;;;;;;4966719;28;19929;-61
2023/05/25 12:39:51;;;;;;;;;;;;;;;;;;4986914;28;20564;-63
2023/05/25 12:42:16;;;;;;;;;;;;;;;;;;4973012;28;20012;-62
2023/05/25 12:44:42;;;;;;;;;;;;;;;;;;4971354;28;20495;-63
2023/05/25 12:47:07;;;;;;;;;;;;;;;;;;4981749;28;20797;-62
2023/05/25 12:49:35;;;;;;;;;;;;;;;;;;4987296;28;19925;-62
2023/05/25 12:52:02;;;;;;;;;;;;;;;;;;4966808;28;19921;-62
2023/05/25 12:54:31;;;;;;;;;;;;;;;;;;4973350;28;19924;-63
2023/05/25 12:57:01;;;;;;;;;;;;;;;;;;4970872;28;19918;-63
2023/05/25 12:59:28;;;;;;;;;;;;;;;;;;4971761;28;20248;-64
2023/05/25 13:01:54;;;;;;;;;;;;;;;;;;4971023;28;19922;-62
2023/05/25 13:04:20;;;;;;;;;;;;;;;;;;4970584;28;20449;-62
2023/05/25 13:06:45;;;;;;;;;;;;;;;;;;4970712;28;19922;-62
2023/05/25 13:09:10;;;;;;;;;;;;;;;;;;4984823;28;20311;-62
2023/05/25 13:11:38;;;;;;;;;;;;;;;;;;4970812;28;19929;-63
2023/05/25 13:14:03;;;;;;;;;;;;;;;;;;4978452;28;19922;-61
2023/05/25 13:16:29;;;;;;;;;;;;;;;;;;4984625;28;20368;-63
2023/05/25 13:18:57;;;;;;;;;;;;;;;;;;4987630;28;20014;-63
2023/05/25 13:21:22;;;;;;;;;;;;;;;;;;4976271;28;19922;-63
2023/05/25 13:23:50;;;;;;;;;;;;;;;;;;4971095;28;19937;-62
2023/05/25 13:26:15;;;;;;;;;;;;;;;;;;4987799;28;20496;-62
2023/05/25 13:28:41;;;;;;;;;;;;;;;;;;4978113;28;19925;-63
2023/05/25 13:31:06;;;;;;;;;;;;;;;;;;4958810;28;19933;-62
2023/05/25 13:33:31;;;;;;;;;;;;;;;;;;4970012;28;19925;-62
2023/05/25 13:35:57;;;;;;;;;;;;;;;;;;4986899;28;19925;-62
2023/05/25 13:38:25;;;;;;;;;;;;;;;;;;4984074;28;19933;-63
2023/05/25 13:40:50;;;;;;;;;;;;;;;;;;4987790;28;20372;-62
2023/05/25 13:43:15;;;;;;;;;;;;;;;;;;4986195;28;19929;-61
2023/05/25 13:45:41;;;;;;;;;;;;;;;;;;4971836;28;20580;-62
2023/05/25 13:48:06;;;;;;;;;;;;;;;;;;4982052;28;19922;-62
2023/05/25 13:50:34;;;;;;;;;;;;;;;;;;4985369;28;19929;-63
2023/05/25 13:52:59;;;;;;;;;;;;;;;;;;4972081;28;20771;-62
2023/05/25 13:55:27;;;;;;;;;;;;;;;;;;4985473;28;19925;-61
2023/05/25 13:57:52;;;;;;;;;;;;;;;;;;4983807;28;19925;-62
2023/05/25 14:00:17;;;;;;;;;;;;;;;;;;4986217;28;20353;-62
2023/05/25 14:02:45;;;;;;;;;;;;;;;;;;4983396;28;19917;-62
2023/05/25 14:05:10;;;;;;;;;;;;;;;;;;4986087;28;19937;-62
2023/05/25 14:07:36;;;;;;;;;;;;;;;;;;4984747;28;20274;-61
2023/05/25 14:10:01;;;;;;;;;;;;;;;;;;4970565;28;20155;-61
2023/05/25 14:12:26;;;;;;;;;;;;;;;;;;4985946;28;19928;-63
2023/05/25 14:14:52;;;;;;;;;;;;;;;;;;4970538;28;19933;-62
2023/05/25 14:17:17;;;;;;;;;;;;;;;;;;4983881;28;19922;-63
2023/05/25 14:19:45;;;;;;;;;;;;;;;;;;4957814;28;19918;-62
2023/05/25 14:22:12;;;;;;;;;;;;;;;;;;4984781;28;19956;-63
2023/05/25 14:24:40;;;;;;;;;;;;;;;;;;4986123;28;19963;-62
2023/05/25 14:27:06;;;;;;;;;;;;;;;;;;4984996;28;20046;-61
2023/05/25 14:29:31;;;;;;;;;;;;;;;;;;4986138;28;20017;-62
2023/05/25 14:31:56;;;;;;;;;;;;;;;;;;4966574;28;19921;-62
2023/05/25 14:34:22;;;;;;;;;;;;;;;;;;4984903;28;20931;-63
2023/05/25 14:36:50;;;;;;;;;;;;;;;;;;4969754;28;19950;-63
2023/05/25 14:39:16;;;;;;;;;;;;;;;;;;4967832;28;19918;-65
2023/05/25 14:41:44;;;;;;;;;;;;;;;;;;4984045;28;20153;-62
2023/05/25 14:44:12;;;;;;;;;;;;;;;;;;4968945;28;20029;-62
2023/05/25 14:46:39;;;;;;;;;;;;;;;;;;4961036;28;19952;-62
2023/05/25 14:49:05;;;;;;;;;;;;;;;;;;4985283;28;19925;-62
2023/05/25 14:51:33;;;;;;;;;;;;;;;;;;4968932;28;20066;-63
2023/05/25 14:54:02;;;;;;;;;;;;;;;;;;4984004;28;20524;-61
2023/05/25 14:56:27;;;;;;;;;;;;;;;;;;4986669;28;20069;-62
2023/05/25 14:58:55;;;;;;;;;;;;;;;;;;4982116;28;19918;-61
2023/05/25 15:01:23;;;;;;;;;;;;;;;;;;4983255;28;20088;-62
2023/05/25 15:03:49;;;;;;;;;;;;;;;;;;4984376;28;20166;-61
2023/05/25 15:06:14;;;;;;;;;;;;;;;;;;4968358;28;19965;-61
2023/05/25 15:08:42;;;;;;;;;;;;;;;;;;4984238;28;21662;-61
2023/05/25 15:11:08;;;;;;;;;;;;;;;;;;4985595;28;19964;-61
2023/05/25 15:13:33;;;;;;;;;;;;;;;;;;4983939;28;20021;-63
2023/05/25 15:15:59;;;;;;;;;;;;;;;;;;4970920;28;20005;-59
2023/05/25 15:18:24;;;;;;;;;;;;;;;;;;4981691;28;20688;-61
2023/05/25 15:20:50;;;;;;;;;;;;;;;;;;4970490;28;19944;-60
2023/05/25 15:23:15;;;;;;;;;;;;;;;;;;4969966;28;20304;-61
2023/05/25 15:25:43;;;;;;;;;;;;;;;;;;4986436;28;20373;-63
2023/05/25 15:28:10;;;;;;;;;;;;;;;;;;4968543;28;20221;-61
2023/05/25 15:30:35;;;;;;;;;;;;;;;;;;4970620;28;20019;-61
2023/05/25 15:33:01;;;;;;;;;;;;;;;;;;4985010;28;19922;-61
2023/05/25 15:35:30;;;;;;;;;;;;;;;;;;4969632;28;19992;-60
2023/05/25 15:37:55;;;;;;;;;;;;;;;;;;4969912;28;19996;-61
2023/05/25 15:40:20;;;;;;;;;;;;;;;;;;4967168;28;20426;-61
2023/05/25 15:42:46;;;;;;;;;;;;;;;;;;4984735;28;19956;-61
2023/05/25 15:45:16;;;;;;;;;;;;;;;;;;4966641;28;19932;-61
2023/05/25 15:47:45;;;;;;;;;;;;;;;;;;4981797;28;19921;-61
2023/05/25 15:50:11;;;;;;;;;;;;;;;;;;4979008;28;19996;-61
2023/05/25 15:52:40;;;;;;;;;;;;;;;;;;4980880;28;19922;-61
2023/05/25 15:55:05;;;;;;;;;;;;;;;;;;4975499;28;19918;-60
2023/05/25 15:57:36;;;;;;;;;;;;;;;;;;4985468;28;19933;-60
2023/05/25 16:00:04;;;;;;;;;;;;;;;;;;4971425;28;19928;-60
2023/05/25 16:02:29;;;;;;;;;;;;;;;;;;4984487;28;19957;-62
2023/05/25 16:04:55;;;;;;;;;;;;;;;;;;4981386;28;19922;-62
2023/05/25 16:07:22;;;;;;;;;;;;;;;;;;4969255;28;19918;-61
2023/05/25 16:09:48;;;;;;;;;;;;;;;;;;4969742;28;20009;-62
2023/05/25 16:12:14;;;;;;;;;;;;;;;;;;4983793;28;19918;-62
2023/05/25 16:14:41;;;;;;;;;;;;;;;;;;4982896;28;20151;-61
2023/05/25 16:17:07;;;;;;;;;;;;;;;;;;4958954;28;19918;-61
2023/05/25 16:19:32;;;;;;;;;;;;;;;;;;4966739;28;19929;-60
2023/05/25 16:21:58;;;;;;;;;;;;;;;;;;4984475;28;19976;-61
2023/05/25 16:24:23;;;;;;;;;;;;;;;;;;4959626;28;19918;-62
2023/05/25 16:26:51;;;;;;;;;;;;;;;;;;4984246;28;20404;-61
2023/05/25 16:29:19;;;;;;;;;;;;;;;;;;4966046;28;19983;-61
2023/05/25 16:31:47;;;;;;;;;;;;;;;;;;4957422;28;20485;-61
2023/05/25 16:34:12;;;;;;;;;;;;;;;;;;4982836;28;20369;-60
2023/05/25 16:36:40;;;;;;;;;;;;;;;;;;4981820;28;20004;-61
2023/05/25 16:39:06;;;;;;;;;;;;;;;;;;4981731;28;20904;-61
2023/05/25 16:41:32;;;;;;;;;;;;;;;;;;4968817;28;19922;-61
2023/05/25 16:44:00;;;;;;;;;;;;;;;;;;4957390;28;19965;-62
2023/05/25 16:46:25;;;;;;;;;;;;;;;;;;4983732;28;19917;-61
2023/05/25 16:48:51;;;;;;;;;;;;;;;;;;4981175;28;19935;-61
2023/05/25 16:51:19;;;;;;;;;;;;;;;;;;4966886;28;19924;-62